Time;durP1;ratioP1;P1;durP2;ratioP2;P2;SDS_P1;SDS_P2;PMS_P1;PMS_P2;Temp;Humidity;BMP_temperature;BMP_pressure;BME280_temperature;BME280_humidity;BME280_pressure;Samples;Min_cycle;Max_cycle;Signal;HPM_P1;HPM_P2
2021/08/08 00:03:55;;;;;;;4.80;2.53;;;;;;;16.86;86.13;100113.38;10189733;28;20050;-69
2021/08/08 00:09:07;;;;;;;5.18;2.65;;;;;;;16.83;86.15;100147.25;10196231;28;20467;-68
2021/08/08 00:14:05;;;;;;;6.78;3.65;;;;;;;16.83;85.83;100147.25;10189484;28;20046;-69
2021/08/08 00:19:05;;;;;;;5.70;2.33;;;;;;;16.76;84.92;100138.84;10193030;28;20042;-68
2021/08/08 00:24:02;;;;;;;6.82;2.70;;;;;;;16.73;84.47;100137.63;10194141;28;20049;-67
2021/08/08 00:28:58;;;;;;;6.10;2.00;;;;;;;16.61;84.30;100138.63;10185819;28;20053;-67
2021/08/08 00:33:55;;;;;;;4.13;2.38;;;;;;;16.68;83.93;100123.34;10188317;28;20058;-69
2021/08/08 00:38:52;;;;;;;7.28;2.58;;;;;;;16.72;84.32;100129.72;10184907;28;20096;-67
2021/08/08 00:43:48;;;;;;;5.03;2.20;;;;;;;16.65;85.08;100124.91;10191732;28;20100;-68
2021/08/08 00:48:45;;;;;;;4.68;2.42;;;;;;;16.59;85.09;100143.75;10195803;28;20430;-69
2021/08/08 00:53:41;;;;;;;5.78;2.95;;;;;;;16.50;85.05;100151.50;10189314;28;20072;-69
2021/08/08 00:58:37;;;;;;;6.00;2.45;;;;;;;16.43;85.29;100151.41;10188475;28;20072;-68
2021/08/08 01:03:34;;;;;;;7.68;2.80;;;;;;;16.38;85.18;100154.47;10189735;28;20041;-69
2021/08/08 01:08:31;;;;;;;6.40;3.47;;;;;;;16.35;85.56;100155.22;10167854;28;20046;-68
2021/08/08 01:13:29;;;;;;;7.60;3.35;;;;;;;16.28;85.55;100155.88;10201296;28;20069;-68
2021/08/08 01:18:27;;;;;;;9.15;3.42;;;;;;;16.20;85.27;100149.47;10192242;28;20084;-69
2021/08/08 01:23:25;;;;;;;6.28;2.83;;;;;;;16.23;84.90;100152.66;10187757;28;20076;-69
2021/08/08 01:28:21;;;;;;;7.90;3.03;;;;;;;16.19;84.91;100153.38;10193032;28;20073;-69
2021/08/08 01:33:18;;;;;;;4.78;3.03;;;;;;;16.11;85.08;100150.91;10189719;28;20132;-68
2021/08/08 01:38:15;;;;;;;4.75;2.90;;;;;;;16.02;84.82;100155.88;10181808;28;20073;-68
2021/08/08 01:43:18;;;;;;;5.13;2.83;;;;;;;15.94;84.64;100160.44;10188020;28;20440;-69
2021/08/08 01:48:17;;;;;;;7.05;3.05;;;;;;;15.88;84.93;100159.16;10185590;28;20041;-68
2021/08/08 01:53:14;;;;;;;6.05;2.83;;;;;;;15.85;85.16;100162.66;10185038;28;20157;-68
2021/08/08 01:58:11;;;;;;;8.32;3.20;;;;;;;15.84;85.00;100163.81;10179339;28;20176;-69
2021/08/08 02:03:09;;;;;;;7.00;2.55;;;;;;;15.82;85.13;100163.38;10188469;28;20088;-69
2021/08/08 02:08:05;;;;;;;8.27;2.58;;;;;;;15.76;85.29;100163.69;10190128;28;20562;-69
2021/08/08 02:13:02;;;;;;;7.45;2.88;;;;;;;15.71;85.04;100161.25;10184584;28;20486;-69
2021/08/08 02:17:58;;;;;;;6.05;2.53;;;;;;;15.66;85.16;100164.25;10186825;28;20077;-68
2021/08/08 02:22:55;;;;;;;5.05;2.58;;;;;;;15.59;85.60;100169.63;10191641;28;20587;-67
2021/08/08 02:27:51;;;;;;;5.95;3.00;;;;;;;15.53;85.45;100171.09;10197929;28;20065;-66
2021/08/08 02:32:48;;;;;;;5.25;2.30;;;;;;;15.50;85.40;100166.31;10197587;28;20569;-68
2021/08/08 02:37:45;;;;;;;8.85;2.83;;;;;;;15.50;85.42;100163.56;10193314;28;20112;-68
2021/08/08 02:42:42;;;;;;;5.38;2.78;;;;;;;15.46;85.20;100170.97;10191810;28;20046;-68
2021/08/08 02:47:38;;;;;;;6.28;2.28;;;;;;;15.44;85.41;100162.28;10192945;28;20092;-68
2021/08/08 02:52:38;;;;;;;8.73;2.63;;;;;;;15.35;85.43;100173.50;10174543;28;20566;-68
2021/08/08 02:57:34;;;;;;;5.07;2.38;;;;;;;15.32;85.41;100183.28;10194128;28;20128;-67
2021/08/08 03:02:30;;;;;;;6.13;2.90;;;;;;;15.26;86.03;100184.75;10187722;28;20038;-66
2021/08/08 03:07:27;;;;;;;7.28;2.92;;;;;;;15.32;86.21;100177.78;10170259;28;20069;-68
2021/08/08 03:12:24;;;;;;;6.88;2.53;;;;;;;15.36;85.63;100173.16;10191128;28;20052;-69
2021/08/08 03:17:20;;;;;;;5.65;2.58;;;;;;;15.39;86.07;100179.06;10197623;28;20050;-68
2021/08/08 03:22:17;;;;;;;5.85;2.33;;;;;;;15.38;85.70;100186.53;10189327;28;20083;-66
2021/08/08 03:27:13;;;;;;;6.03;2.67;;;;;;;15.35;85.21;100177.06;10193009;28;20602;-67
2021/08/08 03:32:10;;;;;;;7.65;2.55;;;;;;;15.36;85.28;100181.41;10172915;28;20045;-68
2021/08/08 03:37:06;;;;;;;5.68;2.40;;;;;;;15.40;85.33;100177.94;10197528;28;21690;-68
2021/08/08 03:42:03;;;;;;;5.22;3.25;;;;;;;15.44;85.40;100189.81;10189753;28;20041;-69
2021/08/08 03:46:59;;;;;;;5.93;2.35;;;;;;;15.43;85.41;100188.22;10191272;28;20570;-65
2021/08/08 03:51:56;;;;;;;10.10;2.83;;;;;;;15.43;85.72;100193.72;10190079;28;20065;-68
2021/08/08 03:56:52;;;;;;;7.95;2.83;;;;;;;15.39;86.03;100203.88;10188693;28;20041;-69
2021/08/08 04:01:49;;;;;;;3.83;2.22;;;;;;;15.32;85.99;100205.34;10186633;28;20095;-66
2021/08/08 04:06:45;;;;;;;4.68;2.60;;;;;;;15.36;85.56;100210.91;10190281;28;20513;-69
2021/08/08 04:11:42;;;;;;;5.57;2.58;;;;;;;15.40;85.43;100211.00;10187630;28;20672;-69
2021/08/08 04:16:38;;;;;;;6.22;2.38;;;;;;;15.40;84.42;100216.50;10190556;28;20045;-67
2021/08/08 04:21:35;;;;;;;5.47;2.83;;;;;;;15.40;85.03;100216.50;10189868;28;20100;-68
2021/08/08 04:26:32;;;;;;;10.25;3.45;;;;;;;15.46;84.79;100217.81;10185628;28;20131;-69
2021/08/08 04:31:30;;;;;;;8.60;2.95;;;;;;;15.49;84.44;100225.34;10193544;28;20096;-68
2021/08/08 04:36:27;;;;;;;6.10;3.08;;;;;;;15.54;84.86;100211.25;10188242;28;20129;-68
2021/08/08 04:41:23;;;;;;;5.93;2.47;;;;;;;15.53;84.88;100220.69;10185621;28;20054;-68
2021/08/08 04:46:19;;;;;;;4.72;2.30;;;;;;;15.54;83.81;100233.31;10188426;28;20085;-66
2021/08/08 04:51:16;;;;;;;5.53;1.88;;;;;;;15.62;83.81;100224.03;10189953;28;20154;-68
2021/08/08 04:56:12;;;;;;;6.22;2.03;;;;;;;15.65;83.40;100226.06;10193342;28;20041;-68
2021/08/08 05:01:09;;;;;;;4.22;1.70;;;;;;;15.67;83.13;100232.00;10189634;28;20061;-68
2021/08/08 05:06:06;;;;;;;3.95;1.90;;;;;;;15.74;82.76;100221.13;10187506;28;20050;-69
2021/08/08 05:11:02;;;;;;;6.53;1.90;;;;;;;15.83;82.94;100222.84;10189037;28;20070;-68
2021/08/08 05:15:59;;;;;;;4.90;2.05;;;;;;;15.86;83.25;100235.94;10188353;28;20049;-69
2021/08/08 05:20:56;;;;;;;5.28;1.83;;;;;;;15.82;82.16;100237.81;10184251;28;20104;-68
2021/08/08 05:25:57;;;;;;;3.92;1.73;;;;;;;15.90;82.08;100237.59;10185264;28;20069;-69
2021/08/08 05:30:53;;;;;;;4.57;1.65;;;;;;;15.91;81.26;100246.66;10186083;28;20537;-69
2021/08/08 05:35:52;;;;;;;3.67;1.75;;;;;;;16.00;82.13;100236.19;10195994;28;20049;-68
2021/08/08 05:40:48;;;;;;;2.88;1.45;;;;;;;16.02;81.16;100247.66;10192532;28;20138;-68
2021/08/08 05:45:47;;;;;;;5.60;1.83;;;;;;;16.04;81.34;100250.03;10194682;28;20129;-68
2021/08/08 05:50:44;;;;;;;3.83;1.70;;;;;;;16.05;81.03;100248.88;10197212;28;20046;-68
2021/08/08 05:55:46;;;;;;;6.47;2.25;;;;;;;16.00;80.66;100255.47;10198532;28;20361;-69
2021/08/08 06:00:42;;;;;;;8.15;2.10;;;;;;;15.90;81.43;100267.13;10194426;28;20045;-68
2021/08/08 06:05:41;;;;;;;5.88;2.42;;;;;;;15.68;84.14;100274.91;10198871;28;20470;-69
2021/08/08 06:10:38;;;;;;;6.78;2.42;;;;;;;15.46;85.97;100270.16;10198464;28;20053;-66
2021/08/08 06:15:38;;;;;;;6.55;2.20;;;;;;;15.43;86.66;100284.63;10189890;28;20672;-69
2021/08/08 06:20:34;;;;;;;5.18;2.47;;;;;;;15.40;87.14;100299.13;10194110;28;20067;-67
2021/08/08 06:25:31;;;;;;;6.43;2.53;;;;;;;15.33;88.15;100288.75;10188552;28;20124;-66
2021/08/08 06:30:27;;;;;;;5.55;2.35;;;;;;;15.32;88.00;100292.69;10170673;28;20077;-67
2021/08/08 06:35:24;;;;;;;4.25;2.50;;;;;;;15.34;88.75;100296.66;10196686;28;20064;-68
2021/08/08 06:40:20;;;;;;;4.68;2.40;;;;;;;15.30;88.80;100306.81;10193862;28;20065;-68
2021/08/08 06:45:17;;;;;;;4.53;2.45;;;;;;;15.25;89.09;100304.34;10196503;28;20050;-67
2021/08/08 06:50:13;;;;;;;5.07;3.25;;;;;;;15.32;89.23;100320.22;10177868;28;20042;-67
2021/08/08 06:55:10;;;;;;;8.25;3.08;;;;;;;15.36;88.92;100304.56;10200939;28;20149;-67
2021/08/08 07:00:07;;;;;;;5.80;3.35;;;;;;;15.33;89.21;100327.31;10191120;28;20073;-69
2021/08/08 07:05:05;;;;;;;5.13;3.10;;;;;;;15.30;89.46;100317.81;10198935;28;20092;-68
2021/08/08 07:10:02;;;;;;;4.80;2.95;;;;;;;15.37;89.61;100322.69;10192933;28;20062;-69
2021/08/08 07:14:58;;;;;;;4.93;3.40;;;;;;;15.34;89.57;100329.72;10198820;28;20487;-68
2021/08/08 07:19:55;;;;;;;6.63;3.38;;;;;;;15.47;89.65;100329.59;10194768;28;20503;-68
2021/08/08 07:24:52;;;;;;;5.28;3.63;;;;;;;15.52;89.65;100329.31;10197337;28;20084;-68
2021/08/08 07:29:48;;;;;;;5.45;3.42;;;;;;;15.50;89.80;100332.44;10193012;28;20038;-68
2021/08/08 07:34:45;;;;;;;7.13;4.05;;;;;;;15.46;90.27;100336.28;10175696;28;20050;-68
2021/08/08 07:39:41;;;;;;;7.90;4.53;;;;;;;15.48;90.67;100334.75;10199571;28;20103;-69
2021/08/08 07:44:38;;;;;;;10.55;5.47;;;;;;;15.45;90.63;100351.97;10191646;28;20119;-67
2021/08/08 07:49:35;;;;;;;7.90;4.80;;;;;;;15.49;91.08;100341.06;10191596;28;20046;-68
2021/08/08 07:54:32;;;;;;;8.88;5.03;;;;;;;15.52;91.37;100351.34;10186557;28;20081;-68
2021/08/08 07:59:29;;;;;;;9.05;4.63;;;;;;;15.47;91.61;100360.69;10191187;28;20042;-69
2021/08/08 08:04:25;;;;;;;8.27;5.40;;;;;;;15.52;91.95;100367.88;10189139;28;20046;-68
2021/08/08 08:09:22;;;;;;;5.80;4.63;;;;;;;15.47;92.74;100377.22;10193532;28;20049;-68
2021/08/08 08:14:18;;;;;;;6.47;4.78;;;;;;;15.48;92.04;100389.03;10191069;28;20123;-68
2021/08/08 08:19:15;;;;;;;8.25;5.75;;;;;;;15.50;92.35;100397.75;10191535;28;20069;-69
2021/08/08 08:24:11;;;;;;;6.78;5.07;;;;;;;15.52;91.85;100400.94;10198267;28;20057;-69
2021/08/08 08:29:08;;;;;;;8.48;6.20;;;;;;;15.43;92.16;100414.09;10191157;28;20050;-70
2021/08/08 08:34:04;;;;;;;10.45;5.97;;;;;;;15.38;92.30;100419.91;10189397;28;20050;-69
2021/08/08 08:39:01;;;;;;;7.65;5.90;;;;;;;15.48;92.88;100422.09;10193759;28;20077;-69
2021/08/08 08:43:59;;;;;;;7.95;5.85;;;;;;;15.46;92.03;100425.22;10197000;28;20076;-69
2021/08/08 08:48:58;;;;;;;12.80;7.45;;;;;;;15.54;91.11;100434.44;10192315;28;20137;-70
2021/08/08 08:53:55;;;;;;;14.45;6.30;;;;;;;15.61;91.17;100451.13;10190418;28;20053;-69
2021/08/08 08:58:51;;;;;;;6.82;5.22;;;;;;;15.64;91.04;100464.22;10192918;28;20678;-70
2021/08/08 09:03:48;;;;;;;16.35;5.50;;;;;;;15.62;90.50;100466.53;10196132;28;20109;-68
2021/08/08 09:08:44;;;;;;;10.20;5.25;;;;;;;15.71;89.91;100485.66;10188343;28;20718;-70
2021/08/08 09:13:55;;;;;;;11.63;4.95;;;;;;;15.83;88.99;100481.97;10195368;28;20708;-68
2021/08/08 09:18:54;;;;;;;8.00;4.65;;;;;;;15.94;88.41;100488.53;10179873;28;20129;-68
2021/08/08 09:23:55;;;;;;;54.33;8.88;;;;;;;16.03;87.47;100500.16;10186615;28;20042;-69
2021/08/08 09:29:03;;;;;;;8.82;4.75;;;;;;;16.14;86.33;100509.47;10193463;28;20049;-69
2021/08/08 09:33:59;;;;;;;167.05;15.23;;;;;;;16.01;86.29;100508.00;10191439;28;20070;-69
2021/08/08 09:38:56;;;;;;;50.17;8.95;;;;;;;15.86;87.44;100528.94;10189641;28;20046;-68
2021/08/08 09:43:52;;;;;;;116.03;18.15;;;;;;;15.82;88.50;100530.00;10208347;28;20038;-68
2021/08/08 09:48:49;;;;;;;127.95;14.70;;;;;;;15.83;89.22;100537.09;10179550;28;20057;-68
2021/08/08 09:53:54;;;;;;;16.77;8.43;;;;;;;15.83;89.81;100543.44;10192323;28;20042;-68
2021/08/08 09:58:50;;;;;;;14.40;7.72;;;;;;;15.81;89.39;100544.97;10194704;28;20038;-69
2021/08/08 10:03:47;;;;;;;17.10;8.15;;;;;;;15.89;88.91;100560.50;10188358;28;20471;-69
2021/08/08 10:08:45;;;;;;;13.73;7.75;;;;;;;15.97;88.63;100565.03;10193733;28;20713;-70
2021/08/08 10:13:57;;;;;;;16.20;7.07;;;;;;;16.04;88.74;100556.94;10196435;28;20703;-70
2021/08/08 10:18:56;;;;;;;12.80;7.10;;;;;;;16.05;88.29;100577.81;10191523;28;20062;-69
2021/08/08 10:23:58;;;;;;;16.17;7.53;;;;;;;16.01;87.44;100574.19;10194915;28;20478;-69
2021/08/08 10:28:56;;;;;;;10.73;7.00;;;;;;;16.04;87.92;100576.22;10201557;28;20396;-68
2021/08/08 10:33:55;;;;;;;12.70;6.70;;;;;;;16.22;87.89;100575.84;10198076;28;20045;-69
2021/08/08 10:38:54;;;;;;;13.55;6.70;;;;;;;16.33;85.74;100577.66;10207349;28;20052;-69
2021/08/08 10:44:05;;;;;;;17.77;6.68;;;;;;;16.56;84.78;100574.22;10200772;28;20046;-70
2021/08/08 10:49:02;;;;;;;15.18;5.40;;;;;;;17.19;81.15;100575.91;10202862;28;20516;-69
2021/08/08 10:54:00;;;;;;;14.75;6.15;;;;;;;18.17;80.44;100582.72;10187366;28;20049;-69
2021/08/08 10:58:57;;;;;;;14.15;5.00;;;;;;;18.34;75.17;100586.09;10193092;28;20050;-70
2021/08/08 11:03:55;;;;;;;10.68;4.97;;;;;;;18.39;73.58;100589.34;10189255;28;20084;-66
2021/08/08 11:08:57;;;;;;;9.10;4.38;;;;;;;18.25;73.29;100606.53;10188692;28;20073;-68
2021/08/08 11:13:55;;;;;;;12.63;4.43;;;;;;;18.13;74.98;100598.47;10192171;28;20635;-69
2021/08/08 11:18:55;;;;;;;8.82;3.60;;;;;;;18.07;73.73;100602.69;10190761;28;20041;-67
2021/08/08 11:23:54;;;;;;;10.52;4.35;;;;;;;17.86;74.53;100609.47;10200762;28;20049;-69
2021/08/08 11:28:54;;;;;;;13.02;4.40;;;;;;;17.72;74.68;100614.75;10186867;28;20042;-68
2021/08/08 11:33:57;;;;;;;14.52;4.53;;;;;;;17.62;74.78;100618.13;10194133;28;20065;-69
2021/08/08 11:38:57;;;;;;;14.30;3.67;;;;;;;17.58;73.37;100622.81;10191085;28;20049;-66
2021/08/08 11:44:20;;;;;;;11.52;3.80;;;;;;;17.65;73.83;100636.75;10192499;28;20214;-68
2021/08/08 11:49:31;;;;;;;10.32;3.75;;;;;;;17.91;73.37;100638.00;10190490;28;20133;-68
2021/08/08 11:54:30;;;;;;;8.15;3.85;;;;;;;18.44;72.16;100635.28;10191531;28;20108;-69
2021/08/08 11:59:32;;;;;;;86.63;7.13;;;;;;;19.01;68.51;100640.81;10192618;28;20077;-69
2021/08/08 12:04:30;;;;;;;8.00;2.47;;;;;;;19.36;64.23;100643.19;10189643;28;20073;-70
2021/08/08 12:09:27;;;;;;;13.98;4.05;;;;;;;18.82;65.53;100644.53;10173957;28;20096;-69
2021/08/08 12:14:38;;;;;;;11.30;2.88;;;;;;;18.71;65.48;100656.22;10191941;28;20393;-69
2021/08/08 12:19:37;;;;;;;8.73;3.08;;;;;;;18.68;64.94;100668.06;10188811;28;20057;-68
2021/08/08 12:24:36;;;;;;;5.32;2.80;;;;;;;18.64;65.15;100678.28;10187986;28;20583;-67
2021/08/08 12:29:42;;;;;;;8.52;2.53;;;;;;;18.38;65.29;100681.03;10191692;28;20053;-67
2021/08/08 12:34:43;;;;;;;12.95;2.88;;;;;;;18.30;67.33;100696.75;10193557;28;20104;-68
2021/08/08 12:39:43;;;;;;;13.88;4.00;;;;;;;17.55;75.34;100706.47;10187580;28;20491;-68
2021/08/08 12:44:40;;;;;;;11.07;3.60;;;;;;;17.64;76.93;100699.53;10176704;28;20041;-68
2021/08/08 12:49:38;;;;;;;13.05;4.32;;;;;;;18.16;75.82;100694.56;10191932;28;20072;-68
2021/08/08 12:54:35;;;;;;;10.93;4.22;;;;;;;18.84;76.79;100697.56;10190055;28;20080;-67
2021/08/08 12:59:31;;;;;;;10.32;3.67;;;;;;;19.09;71.34;100709.78;10187345;28;20333;-67
2021/08/08 13:04:28;;;;;;;10.48;3.17;;;;;;;19.35;69.22;100719.22;10188947;28;20533;-68
2021/08/08 13:09:24;;;;;;;8.43;2.60;;;;;;;19.30;67.08;100714.00;10188901;28;20108;-68
2021/08/08 13:14:20;;;;;;;8.55;2.75;;;;;;;19.12;66.70;100724.88;10193501;28;20535;-67
2021/08/08 13:19:17;;;;;;;10.25;2.42;;;;;;;18.96;65.03;100724.25;10196241;28;20065;-68
2021/08/08 13:24:14;;;;;;;8.70;2.15;;;;;;;18.79;65.78;100734.69;10196024;28;20050;-69
2021/08/08 13:29:10;;;;;;;6.90;2.67;;;;;;;18.57;65.91;100739.09;10176522;28;20202;-68
2021/08/08 13:34:07;;;;;;;9.05;2.58;;;;;;;18.47;66.30;100745.25;10174934;28;20580;-69
2021/08/08 13:39:03;;;;;;;11.32;3.35;;;;;;;18.54;67.98;100745.38;10184689;28;20126;-69
2021/08/08 13:44:00;;;;;;;8.13;2.88;;;;;;;18.55;68.03;100769.13;10185969;28;20148;-69
2021/08/08 13:48:56;;;;;;;10.35;2.55;;;;;;;18.56;66.52;100776.25;10178864;28;20140;-68
2021/08/08 13:53:53;;;;;;;10.82;3.25;;;;;;;18.54;66.24;100778.59;10167961;28;20045;-68
2021/08/08 13:58:50;;;;;;;10.10;2.72;;;;;;;18.43;65.05;100783.19;10172286;28;20073;-68
2021/08/08 14:03:47;;;;;;;10.20;2.65;;;;;;;18.28;66.81;100799.50;10200398;28;20069;-68
2021/08/08 14:08:43;;;;;;;11.30;2.92;;;;;;;18.19;68.50;100818.31;10187860;28;20566;-68
2021/08/08 14:13:40;;;;;;;10.43;3.50;;;;;;;17.92;70.30;100808.34;10196762;28;20042;-66
2021/08/08 14:18:36;;;;;;;6.72;2.50;;;;;;;17.91;71.48;100809.50;10199545;28;20046;-67
2021/08/08 14:23:33;;;;;;;13.23;4.05;;;;;;;18.03;71.83;100814.84;10191069;28;20096;-66
2021/08/08 14:28:29;;;;;;;11.98;3.90;;;;;;;18.15;71.30;100817.47;10190260;28;20104;-67
2021/08/08 14:33:26;;;;;;;13.02;4.07;;;;;;;18.35;70.43;100820.19;10194103;28;20046;-68
2021/08/08 14:38:22;;;;;;;11.48;3.35;;;;;;;18.74;70.22;100814.53;10193810;28;20129;-65
2021/08/08 14:43:19;;;;;;;12.95;3.40;;;;;;;18.78;69.09;100818.19;10187140;28;20049;-64
2021/08/08 14:48:15;;;;;;;11.38;3.35;;;;;;;18.79;67.74;100817.81;10171595;28;20077;-68
2021/08/08 14:53:12;;;;;;;9.25;2.70;;;;;;;18.87;65.78;100813.19;10193205;28;20056;-69
2021/08/08 14:58:08;;;;;;;5.65;2.33;;;;;;;18.78;62.70;100804.34;10196375;28;20073;-67
2021/08/08 15:03:05;;;;;;;11.40;3.00;;;;;;;18.76;60.99;100818.53;10196641;28;20137;-67
2021/08/08 15:08:02;;;;;;;7.22;2.00;;;;;;;18.86;62.61;100817.13;10199993;28;20504;-68
2021/08/08 15:12:58;;;;;;;5.82;1.92;;;;;;;18.91;60.59;100819.56;10198180;28;20547;-68
2021/08/08 15:17:59;;;;;;;7.25;2.13;;;;;;;19.14;59.34;100823.06;10197347;28;20133;-68
2021/08/08 15:22:56;;;;;;;6.25;1.70;;;;;;;19.52;57.93;100826.78;10188051;28;20516;-69
2021/08/08 15:27:54;;;;;;;9.95;2.90;;;;;;;19.55;56.05;100831.56;10191373;28;20088;-68
2021/08/08 15:32:50;;;;;;;9.35;2.08;;;;;;;19.63;55.13;100831.66;10194044;28;20095;-67
2021/08/08 15:37:47;;;;;;;7.78;2.17;;;;;;;19.83;56.06;100852.56;10186609;28;20049;-68
2021/08/08 15:42:44;;;;;;;8.95;2.25;;;;;;;19.75;55.75;100839.78;10190687;28;20134;-68
2021/08/08 15:47:40;;;;;;;9.77;2.20;;;;;;;19.67;56.17;100844.41;10194802;28;20041;-69
2021/08/08 15:52:38;;;;;;;7.75;1.60;;;;;;;19.74;56.36;100850.06;10193995;28;20562;-67
2021/08/08 15:57:35;;;;;;;8.70;2.40;;;;;;;19.94;55.40;100847.94;10199417;28;20136;-67
2021/08/08 16:02:31;;;;;;;6.85;1.92;;;;;;;20.06;54.73;100848.88;10201770;28;20104;-66
2021/08/08 16:07:28;;;;;;;8.80;2.00;;;;;;;20.13;54.01;100854.50;10207171;28;20454;-67
2021/08/08 16:12:24;;;;;;;7.35;1.67;;;;;;;20.23;55.23;100853.78;10204087;28;20504;-68
2021/08/08 16:17:21;;;;;;;10.82;2.05;;;;;;;20.24;55.30;100852.63;10191172;28;20042;-67
2021/08/08 16:22:17;;;;;;;8.25;2.15;;;;;;;20.39;52.59;100868.25;10183013;28;20048;-67
2021/08/08 16:27:14;;;;;;;6.38;1.75;;;;;;;20.49;51.80;100871.50;10181194;28;20053;-65
2021/08/08 16:32:11;;;;;;;9.65;2.08;;;;;;;20.35;53.05;100867.44;10184414;28;20050;-66
2021/08/08 16:37:08;;;;;;;5.28;1.80;;;;;;;20.71;51.79;100870.56;10178118;28;20150;-65
2021/08/08 16:42:04;;;;;;;5.55;1.58;;;;;;;21.21;51.78;100876.53;10187040;28;20141;-67
2021/08/08 16:47:01;;;;;;;7.05;1.58;;;;;;;21.62;47.61;100884.72;10192747;28;20573;-66
2021/08/08 16:52:01;;;;;;;9.45;1.92;;;;;;;21.70;46.80;100887.53;10202313;28;20058;-67
2021/08/08 16:56:58;;;;;;;9.50;2.00;;;;;;;21.58;47.34;100886.72;10187769;28;20053;-67
2021/08/08 17:01:55;;;;;;;8.73;1.67;;;;;;;21.07;48.16;100895.84;10189606;28;20042;-66
2021/08/08 17:06:52;;;;;;;5.57;1.70;;;;;;;20.70;50.05;100905.09;10185978;28;20053;-67
2021/08/08 17:11:48;;;;;;;8.85;2.30;;;;;;;20.58;49.11;100902.56;10192307;28;20053;-63
2021/08/08 17:16:45;;;;;;;8.20;2.10;;;;;;;20.34;50.12;100903.91;10187928;28;20080;-68
2021/08/08 17:21:41;;;;;;;9.73;2.00;;;;;;;20.14;50.78;100903.25;10182988;28;20119;-64
2021/08/08 17:26:38;;;;;;;10.95;1.88;;;;;;;20.09;49.86;100909.94;10175556;28;20511;-64
2021/08/08 17:31:34;;;;;;;5.60;1.45;;;;;;;19.84;48.96;100923.53;10178904;28;20052;-66
2021/08/08 17:36:31;;;;;;;4.72;1.58;;;;;;;19.82;49.93;100922.28;10193754;28;20041;-66
2021/08/08 17:41:28;;;;;;;5.55;1.67;;;;;;;19.75;50.80;100923.00;10187593;28;20133;-69
2021/08/08 17:46:24;;;;;;;9.93;1.90;;;;;;;19.69;50.57;100930.06;10180550;28;20042;-66
2021/08/08 17:51:21;;;;;;;8.00;1.65;;;;;;;19.61;50.71;100936.63;10187592;28;20100;-66
2021/08/08 17:56:18;;;;;;;7.93;1.67;;;;;;;19.57;51.73;100938.56;10184327;28;20073;-67
2021/08/08 18:01:15;;;;;;;7.13;1.30;;;;;;;19.49;52.78;100941.22;10214120;28;20137;-67
2021/08/08 18:06:12;;;;;;;6.10;1.95;;;;;;;19.43;53.25;100947.47;10187301;28;20061;-67
2021/08/08 18:11:09;;;;;;;8.18;2.10;;;;;;;19.30;53.30;100944.09;10185046;28;20413;-67
2021/08/08 18:16:05;;;;;;;8.43;1.90;;;;;;;19.19;53.55;100957.78;10190900;28;20069;-68
2021/08/08 18:21:02;;;;;;;5.68;1.83;;;;;;;19.12;54.92;100964.03;10190711;28;20076;-66
2021/08/08 18:25:58;;;;;;;7.18;1.70;;;;;;;19.05;55.51;100972.22;10190791;28;20077;-68
2021/08/08 18:30:55;;;;;;;9.20;2.03;;;;;;;18.99;55.65;100976.44;10186224;28;20061;-66
2021/08/08 18:35:52;;;;;;;6.97;1.75;;;;;;;18.94;55.61;100982.31;10185986;28;20663;-65
2021/08/08 18:40:48;;;;;;;6.97;1.38;;;;;;;18.89;55.11;100986.19;10188190;28;20076;-64
2021/08/08 18:45:45;;;;;;;7.53;1.88;;;;;;;18.83;55.75;100989.63;10186939;28;20054;-67
2021/08/08 18:50:42;;;;;;;8.27;1.75;;;;;;;18.78;56.41;100992.69;10194441;28;20050;-65
2021/08/08 18:55:38;;;;;;;8.07;2.53;;;;;;;18.75;57.24;101004.44;10188941;28;20069;-67
2021/08/08 19:00:35;;;;;;;9.85;2.20;;;;;;;18.68;57.28;100999.56;10192947;28;20057;-66
2021/08/08 19:05:32;;;;;;;8.52;2.58;;;;;;;18.65;58.11;101003.88;10191664;28;20046;-67
2021/08/08 19:10:29;;;;;;;9.05;2.05;;;;;;;18.60;58.61;101018.03;10187063;28;20045;-66
2021/08/08 19:15:26;;;;;;;7.22;2.30;;;;;;;18.59;59.69;101024.75;10191876;28;20121;-65
2021/08/08 19:20:23;;;;;;;6.28;1.98;;;;;;;18.52;59.08;101030.16;10194436;28;20052;-65
2021/08/08 19:25:21;;;;;;;11.18;2.55;;;;;;;18.49;58.73;101036.38;10206885;28;20054;-70
2021/08/08 19:30:18;;;;;;;7.65;2.38;;;;;;;18.43;59.15;101043.41;10190744;28;20073;-69
2021/08/08 19:35:14;;;;;;;8.23;2.50;;;;;;;18.42;59.64;101058.38;10190476;28;20096;-68
2021/08/08 19:40:12;;;;;;;8.27;2.83;;;;;;;18.37;60.33;101056.72;10193221;28;20061;-68
2021/08/08 19:45:09;;;;;;;9.52;2.83;;;;;;;18.30;59.75;101062.88;10191519;28;20141;-66
2021/08/08 19:50:09;;;;;;;10.90;2.72;;;;;;;18.22;60.77;101057.59;10194171;28;20100;-69
2021/08/08 19:55:07;;;;;;;9.60;2.85;;;;;;;18.19;60.41;101059.06;10199906;28;20045;-68
2021/08/08 20:00:08;;;;;;;9.88;2.53;;;;;;;18.13;60.62;101057.78;10197768;28;20073;-68
2021/08/08 20:05:04;;;;;;;6.50;1.90;;;;;;;18.10;60.54;101069.53;10185059;28;20133;-68
2021/08/08 20:10:01;;;;;;;5.82;1.92;;;;;;;18.04;59.32;101076.53;10194256;28;20636;-69
2021/08/08 20:14:58;;;;;;;10.68;2.75;;;;;;;17.97;59.31;101065.31;10168340;28;20550;-67
2021/08/08 20:19:54;;;;;;;7.35;2.00;;;;;;;17.93;59.38;101076.28;10195338;28;20056;-68
2021/08/08 20:24:52;;;;;;;5.72;1.77;;;;;;;17.88;60.63;101069.06;10199687;28;20530;-70
2021/08/08 20:29:48;;;;;;;7.22;2.20;;;;;;;17.84;60.00;101067.38;10205430;28;20103;-69
2021/08/08 20:34:45;;;;;;;6.82;1.77;;;;;;;17.80;60.74;101070.03;10190481;28;20042;-70
2021/08/08 20:39:41;;;;;;;7.18;2.00;;;;;;;17.73;60.49;101072.63;10206553;28;20553;-69
2021/08/08 20:44:39;;;;;;;7.53;2.10;;;;;;;17.73;60.65;101083.69;10210570;28;20049;-68
2021/08/08 20:49:36;;;;;;;7.03;2.60;;;;;;;17.73;60.85;101089.22;10191576;28;20093;-69
2021/08/08 20:54:32;;;;;;;8.45;2.40;;;;;;;17.74;61.60;101095.56;10200403;28;20046;-68
2021/08/08 20:59:29;;;;;;;11.40;2.35;;;;;;;17.65;60.79;101092.97;10198023;28;20045;-68
2021/08/08 21:04:25;;;;;;;7.35;1.77;;;;;;;17.59;59.73;101088.84;10200900;28;20416;-68
2021/08/08 21:09:22;;;;;;;7.65;1.85;;;;;;;17.54;59.90;101098.22;10157242;28;1085262;-69
2021/08/08 21:14:18;;;;;;;10.95;2.50;;;;;;;17.50;59.85;101107.56;10202479;28;20054;-69
2021/08/08 21:19:15;;;;;;;6.30;1.83;;;;;;;17.45;60.24;101114.16;10186774;28;20077;-69
2021/08/08 21:24:11;;;;;;;7.47;1.38;;;;;;;17.40;59.60;101111.66;10204710;28;20569;-67
2021/08/08 21:29:08;;;;;;;4.18;1.67;;;;;;;17.32;59.39;101116.22;10189325;28;20474;-70
2021/08/08 21:34:04;;;;;;;4.90;1.38;;;;;;;17.23;59.72;101115.56;10195411;28;20045;-69
2021/08/08 21:39:01;;;;;;;13.45;6.05;;;;;;;17.18;59.73;101129.66;10200849;28;20050;-69
2021/08/08 21:43:58;;;;;;;4.88;1.50;;;;;;;17.11;58.42;101129.44;10196745;28;20161;-70
2021/08/08 21:48:54;;;;;;;5.15;1.25;;;;;;;17.02;58.77;101126.81;10208263;28;20080;-67
2021/08/08 21:53:51;;;;;;;3.95;1.10;;;;;;;16.99;58.51;101128.34;10212488;28;20091;-67
2021/08/08 21:58:47;;;;;;;6.22;1.52;;;;;;;16.93;58.57;101151.81;10201366;28;20078;-68
2021/08/08 22:03:44;;;;;;;5.20;1.10;;;;;;;16.86;58.24;101148.88;10192965;28;20073;-68
2021/08/08 22:08:40;;;;;;;3.95;1.10;;;;;;;16.78;58.45;101155.31;10186139;28;20145;-69
2021/08/08 22:13:37;;;;;;;4.32;1.23;;;;;;;16.74;58.55;101154.41;10197920;28;20641;-68
2021/08/08 22:18:34;;;;;;;8.52;1.10;;;;;;;16.68;58.93;101161.31;10204939;28;20081;-69
2021/08/08 22:23:31;;;;;;;2.30;0.93;;;;;;;16.66;59.76;101158.88;10200911;28;20070;-68
2021/08/08 22:28:27;;;;;;;5.60;1.15;;;;;;;16.62;59.46;101163.50;10200779;28;20076;-68
2021/08/08 22:33:24;;;;;;;4.35;1.15;;;;;;;16.48;59.95;101163.09;10208911;28;20066;-67
2021/08/08 22:38:20;;;;;;;3.42;1.05;;;;;;;16.45;59.68;101161.78;10206645;28;20476;-68
2021/08/08 22:43:17;;;;;;;4.55;1.27;;;;;;;16.43;60.48;101172.41;10214865;28;20038;-68